Time;durP1;ratioP1;P1;durP2;ratioP2;P2;SDS_P1;SDS_P2;PMS_P1;PMS_P2;Temp;Humidity;BMP_temperature;BMP_pressure;BME280_temperature;BME280_humidity;BME280_pressure;Samples;Min_cycle;Max_cycle;Signal;HPM_P1;HPM_P2
2023/08/02 00:02:20;;;;;;;5.53;1.83;;;;;;;21.85;61.88;99801.50;5050245;27;98851;-72
2023/08/02 00:04:46;;;;;;;2.72;1.33;;;;;;;21.71;62.13;99795.75;5054049;27;98990;-72
2023/08/02 00:07:13;;;;;;;4.50;1.50;;;;;;;21.67;62.48;99797.88;5041075;27;97143;-72
2023/08/02 00:09:40;;;;;;;4.40;1.38;;;;;;;21.70;62.20;99786.84;5045095;27;97642;-72
2023/08/02 00:12:07;;;;;;;4.85;1.33;;;;;;;21.81;62.02;99783.09;5045384;27;97992;-71
2023/08/02 00:14:34;;;;;;;2.88;1.50;;;;;;;21.76;62.34;99780.88;5061215;27;97907;-72
2023/08/02 00:17:00;;;;;;;3.83;1.50;;;;;;;21.79;62.21;99785.13;5048127;27;97729;-74
2023/08/02 00:19:27;;;;;;;3.95;1.58;;;;;;;21.78;62.09;99791.50;5048713;27;97262;-72
2023/08/02 00:21:53;;;;;;;5.70;1.70;;;;;;;21.62;62.30;99785.88;5056203;27;98961;-72
2023/08/02 00:24:19;;;;;;;7.22;1.83;;;;;;;21.71;62.34;99783.16;5050282;27;102021;-72
2023/08/02 00:26:47;;;;;;;4.20;1.35;;;;;;;21.54;62.46;99789.31;5046570;27;96743;-72
2023/08/02 00:29:13;;;;;;;6.63;1.60;;;;;;;21.49;62.38;99791.59;5047043;27;97678;-72
2023/08/02 00:31:40;;;;;;;3.88;1.63;;;;;;;21.40;62.69;99795.16;5046074;27;99106;-72
2023/08/02 00:34:06;;;;;;;3.08;1.33;;;;;;;21.26;63.33;99795.63;5050773;27;98694;-72
2023/08/02 00:36:32;;;;;;;4.28;1.60;;;;;;;21.30;63.12;99799.72;5049529;27;96845;-72
2023/08/02 00:38:59;;;;;;;2.03;1.33;;;;;;;21.34;62.95;99801.09;5042050;27;98802;-72
2023/08/02 00:41:25;;;;;;;5.85;1.67;;;;;;;21.27;63.17;99803.53;5057522;27;99833;-72
2023/08/02 00:43:53;;;;;;;3.40;1.42;;;;;;;21.37;62.34;99801.69;5050480;27;100296;-71
2023/08/02 00:46:20;;;;;;;6.97;1.50;;;;;;;21.34;62.48;99806.47;5056587;27;96927;-72
2023/08/02 00:48:46;;;;;;;6.40;2.05;;;;;;;21.26;63.00;99804.56;5049151;27;96868;-72
2023/08/02 00:51:15;;;;;;;5.03;1.40;;;;;;;21.28;62.57;99805.22;5052402;27;99377;-72
2023/08/02 00:53:42;;;;;;;3.72;1.45;;;;;;;21.41;62.20;99818.34;5058419;27;98860;-73
2023/08/02 00:56:08;;;;;;;5.45;1.60;;;;;;;21.31;62.48;99814.84;5054648;27;96810;-72
2023/08/02 00:58:35;;;;;;;2.25;1.20;;;;;;;21.37;62.49;99815.13;5057394;27;96794;-72
2023/08/02 01:01:07;;;;;;;2.50;1.63;;;;;;;21.41;62.32;99810.28;5050960;27;99096;-72
2023/08/02 01:03:34;;;;;;;2.90;1.25;;;;;;;21.37;62.18;99809.75;5048652;27;99194;-73
2023/08/02 01:06:05;;;;;;;3.20;1.30;;;;;;;21.41;62.11;99802.22;5049124;27;99119;-73
2023/08/02 01:08:36;;;;;;;3.75;1.30;;;;;;;21.27;62.47;99810.75;5057148;27;97099;-73
2023/08/02 01:11:08;;;;;;;3.58;1.60;;;;;;;21.28;62.79;99802.53;5056377;27;97620;-72
2023/08/02 01:13:40;;;;;;;1.65;1.02;;;;;;;21.40;62.64;99805.91;5051150;27;98783;-73
2023/08/02 01:16:08;;;;;;;4.13;1.70;;;;;;;21.50;62.07;99812.09;5053525;27;96764;-72
2023/08/02 01:18:35;;;;;;;3.78;1.40;;;;;;;21.46;61.88;99813.41;5052622;27;96988;-72
2023/08/02 01:21:02;;;;;;;4.78;1.60;;;;;;;21.43;61.90;99808.31;5054153;27;98941;-72
2023/08/02 01:23:29;;;;;;;8.35;1.50;;;;;;;21.38;62.04;99814.13;5050007;27;98961;-72
2023/08/02 01:25:59;;;;;;;6.15;1.65;;;;;;;21.27;62.14;99810.75;5050526;27;96733;-72
2023/08/02 01:28:27;;;;;;;6.53;1.55;;;;;;;21.32;62.55;99814.72;5055993;27;96909;-73
2023/08/02 01:30:54;;;;;;;3.08;1.40;;;;;;;21.27;62.34;99808.91;5054267;27;98911;-72
2023/08/02 01:33:22;;;;;;;5.30;1.48;;;;;;;21.41;61.81;99810.28;5052205;27;97589;-73
2023/08/02 01:35:49;;;;;;;3.92;1.50;;;;;;;21.28;62.06;99812.44;5057360;27;97179;-73
2023/08/02 01:38:17;;;;;;;6.60;1.80;;;;;;;21.23;62.75;99814.72;5040882;27;97231;-72
2023/08/02 01:40:43;;;;;;;4.00;1.35;;;;;;;21.14;62.87;99818.22;5049646;27;98994;-73
2023/08/02 01:43:09;;;;;;;6.63;1.80;;;;;;;21.08;62.89;99808.91;5054565;27;98957;-72
2023/08/02 01:45:36;;;;;;;3.95;1.40;;;;;;;21.15;62.73;99807.34;5049668;27;96737;-73
2023/08/02 01:48:02;;;;;;;2.83;1.52;;;;;;;21.17;62.84;99799.19;5041352;27;97132;-73
2023/08/02 01:50:28;;;;;;;8.77;1.60;;;;;;;21.05;62.36;99801.16;5051262;27;98836;-72
2023/08/02 01:52:55;;;;;;;6.18;1.80;;;;;;;21.02;62.57;99806.81;5057967;27;99224;-72
2023/08/02 01:55:22;;;;;;;3.08;1.30;;;;;;;20.93;63.22;99797.78;5049617;27;96860;-72
2023/08/02 01:57:49;;;;;;;5.40;1.73;;;;;;;21.25;62.25;99796.63;5044188;27;96980;-72
2023/08/02 02:00:16;;;;;;;7.90;1.88;;;;;;;21.29;61.69;99804.25;5055086;27;98897;-73
2023/08/02 02:02:42;;;;;;;5.75;1.20;;;;;;;21.34;61.40;99806.47;5043655;27;98874;-73
2023/08/02 02:05:09;;;;;;;5.53;1.50;;;;;;;21.44;61.08;99801.94;5052193;27;96788;-73
2023/08/02 02:07:35;;;;;;;4.55;1.50;;;;;;;21.44;61.37;99807.31;5053279;27;96910;-73
2023/08/02 02:10:01;;;;;;;3.60;1.48;;;;;;;21.45;61.27;99809.03;5047497;27;99371;-73
2023/08/02 02:12:29;;;;;;;5.53;1.40;;;;;;;21.60;61.15;99812.06;5050034;27;98778;-73
2023/08/02 02:14:56;;;;;;;1.88;1.20;;;;;;;21.66;60.58;99801.56;5053891;27;97936;-73
2023/08/02 02:17:23;;;;;;;7.97;1.63;;;;;;;21.74;60.27;99804.38;5052054;27;96787;-72
2023/08/02 02:19:49;;;;;;;5.75;1.65;;;;;;;21.47;60.75;99804.31;5049407;27;100551;-72
2023/08/02 02:22:16;;;;;;;4.18;1.42;;;;;;;21.71;60.42;99799.31;5056728;27;99118;-72
2023/08/02 02:24:43;;;;;;;4.85;1.65;;;;;;;21.53;60.79;99798.34;5045779;27;99261;-71
2023/08/02 02:27:09;;;;;;;8.38;1.40;;;;;;;21.52;61.04;99802.06;5057086;27;96731;-72
2023/08/02 02:29:37;;;;;;;2.97;1.40;;;;;;;21.57;60.77;99807.00;5049680;27;98601;-72
2023/08/02 02:32:04;;;;;;;3.15;1.40;;;;;;;21.43;61.57;99806.47;5049269;27;99126;-72
2023/08/02 02:34:30;;;;;;;5.53;1.60;;;;;;;21.37;61.81;99806.22;5049348;27;96854;-73
2023/08/02 02:36:57;;;;;;;6.97;1.52;;;;;;;21.48;61.58;99800.66;5052795;27;96742;-72
2023/08/02 02:39:24;;;;;;;6.53;1.90;;;;;;;21.40;61.54;99801.38;5053723;27;99470;-73
2023/08/02 02:41:50;;;;;;;3.85;1.45;;;;;;;21.46;61.70;99799.97;5055262;27;98992;-74
2023/08/02 02:44:16;;;;;;;3.70;1.50;;;;;;;21.50;61.76;99795.97;5009197;27;1101472;-73
2023/08/02 02:46:44;;;;;;;4.28;1.65;;;;;;;21.51;61.58;99789.63;5055266;27;97209;-73
2023/08/02 02:49:11;;;;;;;3.28;1.48;;;;;;;21.53;61.33;99792.16;5048062;27;98890;-73
2023/08/02 02:51:37;;;;;;;4.63;1.70;;;;;;;21.58;61.20;99793.41;5050960;27;99164;-74
2023/08/02 02:54:03;;;;;;;9.50;2.05;;;;;;;21.58;61.16;99804.16;5058157;27;96816;-71
2023/08/02 02:56:30;;;;;;;4.28;1.70;;;;;;;21.43;61.73;99787.66;5052360;27;97347;-72
2023/08/02 02:58:56;;;;;;;3.03;1.35;;;;;;;21.39;61.91;99794.34;5043799;27;99089;-72
2023/08/02 03:01:22;;;;;;;6.05;1.75;;;;;;;21.44;61.79;99801.94;5050825;27;101471;-72
2023/08/02 03:03:50;;;;;;;3.22;1.95;;;;;;;21.35;61.79;99794.75;5050880;27;97135;-73
2023/08/02 03:06:17;;;;;;;3.90;1.70;;;;;;;21.30;62.10;99794.34;5054626;27;96978;-72
2023/08/02 03:08:43;;;;;;;6.93;2.30;;;;;;;21.17;62.30;99793.81;5048826;27;99029;-73
2023/08/02 03:11:09;;;;;;;2.58;1.63;;;;;;;21.19;62.04;99807.97;5045485;27;98814;-72
2023/08/02 03:13:36;;;;;;;7.05;2.05;;;;;;;21.11;62.55;99797.03;5057523;27;96821;-72
2023/08/02 03:16:02;;;;;;;8.52;1.70;;;;;;;21.13;63.07;99797.75;5049797;27;96829;-73
2023/08/02 03:18:28;;;;;;;7.70;1.83;;;;;;;21.26;62.41;99798.31;5060533;27;99343;-73
2023/08/02 03:20:56;;;;;;;5.03;1.70;;;;;;;21.15;62.75;99801.13;5054206;27;99033;-73
2023/08/02 03:23:23;;;;;;;6.35;1.55;;;;;;;21.12;62.88;99788.00;5057039;27;96829;-72
2023/08/02 03:25:49;;;;;;;5.53;1.80;;;;;;;21.02;63.71;99796.06;5054164;27;97412;-72
2023/08/02 03:28:15;;;;;;;7.03;1.92;;;;;;;21.12;63.02;99802.28;5051259;27;98855;-73
2023/08/02 03:30:42;;;;;;;9.65;2.00;;;;;;;21.05;63.11;99804.69;5054277;27;98761;-71
2023/08/02 03:33:08;;;;;;;5.43;1.75;;;;;;;21.00;63.23;99803.44;5050848;27;96742;-71
2023/08/02 03:35:34;;;;;;;3.72;1.90;;;;;;;20.99;63.69;99807.97;5048106;27;97973;-72
2023/08/02 03:38:02;;;;;;;3.95;1.60;;;;;;;20.84;64.19;99806.69;5052836;27;98348;-72
2023/08/02 03:40:29;;;;;;;3.67;1.48;;;;;;;20.81;64.68;99809.63;5045952;27;98998;-72
2023/08/02 03:42:55;;;;;;;3.63;1.85;;;;;;;20.97;64.00;99811.75;5058984;27;97148;-71
2023/08/02 03:45:21;;;;;;;8.55;2.00;;;;;;;21.07;63.40;99815.28;5047605;27;97550;-73
2023/08/02 03:47:48;;;;;;;5.32;2.22;;;;;;;21.24;63.59;99808.38;5057641;27;98899;-73
2023/08/02 03:50:14;;;;;;;9.13;2.10;;;;;;;21.20;63.46;99810.47;5050311;27;98915;-72
2023/08/02 03:52:41;;;;;;;5.30;1.98;;;;;;;21.11;63.97;99810.47;5048205;27;96859;-73
2023/08/02 03:55:09;;;;;;;3.20;1.77;;;;;;;21.03;64.27;99809.34;5045856;27;99297;-72
2023/08/02 03:57:35;;;;;;;5.05;1.80;;;;;;;20.96;64.79;99812.75;5053970;27;99149;-72
2023/08/02 04:00:01;;;;;;;9.57;2.45;;;;;;;21.23;63.78;99809.34;5054001;27;97601;-72
2023/08/02 04:02:28;;;;;;;7.25;2.20;;;;;;;20.97;64.92;99807.25;5053379;27;96777;-72
2023/08/02 04:04:53;;;;;;;3.47;1.90;;;;;;;21.06;65.17;99819.81;5051459;27;97310;-72
2023/08/02 04:07:19;;;;;;;;;;;;;;;21.05;65.17;99812.75;5051274;27;99252;-72
2023/08/02 04:09:46;;;;;;;2.50;1.70;;;;;;;21.14;64.37;99812.84;5042692;27;98740;-72
2023/08/02 04:12:17;;;;;;;7.22;2.10;;;;;;;21.12;64.69;99812.16;5051738;27;96995;-72
2023/08/02 04:14:43;;;;;;;4.50;2.05;;;;;;;21.15;64.59;99823.47;5048186;27;96835;-74
2023/08/02 04:17:10;;;;;;;4.82;2.38;;;;;;;21.25;64.14;99820.81;5061747;27;99039;-72
2023/08/02 04:19:36;;;;;;;6.63;2.40;;;;;;;21.21;64.39;99817.53;5056001;27;99105;-72
2023/08/02 04:22:03;;;;;;;4.90;1.98;;;;;;;21.35;63.87;99808.19;5052009;27;96815;-72
2023/08/02 04:24:31;;;;;;;5.80;2.20;;;;;;;21.34;63.61;99814.53;5044292;27;97434;-72
2023/08/02 04:26:57;;;;;;;7.38;2.25;;;;;;;21.29;63.83;99819.50;5052342;27;101295;-72
2023/08/02 04:29:25;;;;;;;5.28;2.03;;;;;;;21.37;63.55;99827.72;5054092;27;98695;-73
2023/08/02 04:31:51;;;;;;;4.00;1.77;;;;;;;21.33;63.82;99820.94;5051375;27;96832;-73
2023/08/02 04:34:17;;;;;;;4.03;2.20;;;;;;;21.39;63.44;99820.34;5048456;27;98689;-72
2023/08/02 04:36:44;;;;;;;9.82;2.55;;;;;;;21.37;63.54;99822.34;5050309;27;99342;-72
2023/08/02 04:39:11;;;;;;;5.10;2.25;;;;;;;21.26;64.16;99819.81;5049649;27;99207;-73
2023/08/02 04:41:37;;;;;;;7.28;2.42;;;;;;;21.47;63.45;99817.75;5048008;27;98974;-73
2023/08/02 04:44:04;;;;;;;15.50;2.13;;;;;;;21.28;63.85;99818.66;5045371;27;100831;-71
2023/08/02 04:46:32;;;;;;;7.57;2.08;;;;;;;21.11;64.44;99819.38;5049388;27;98988;-72
2023/08/02 04:48:58;;;;;;;4.35;2.30;;;;;;;21.30;63.90;99811.31;5051093;27;98866;-73
2023/08/02 04:51:25;;;;;;;8.85;2.42;;;;;;;21.35;64.00;99816.25;5056249;27;96714;-74
2023/08/02 04:53:51;;;;;;;11.95;2.30;;;;;;;21.31;63.95;99821.06;5047894;27;97085;-72
2023/08/02 04:56:18;;;;;;;6.82;2.28;;;;;;;21.16;64.45;99810.91;5053756;27;102142;-72
2023/08/02 04:58:45;;;;;;;6.97;2.08;;;;;;;21.12;64.53;99814.88;5050017;27;101505;-72
2023/08/02 05:01:11;;;;;;;4.38;2.28;;;;;;;21.21;64.69;99811.31;5052851;27;96798;-73
2023/08/02 05:03:39;;;;;;;3.78;2.30;;;;;;;21.12;64.75;99807.66;5050067;27;96806;-72
2023/08/02 05:06:06;;;;;;;5.40;1.92;;;;;;;21.25;64.44;99812.75;5044798;27;98874;-72
2023/08/02 05:08:36;;;;;;;4.03;1.83;;;;;;;21.26;64.83;99804.56;5048714;27;101117;-73
2023/08/02 05:11:05;;;;;;;5.90;2.13;;;;;;;21.33;63.98;99797.56;5046419;27;97211;-73
2023/08/02 05:13:31;;;;;;;4.43;2.00;;;;;;;21.43;63.91;99795.72;5048607;27;96780;-73
2023/08/02 05:15:57;;;;;;;3.22;2.10;;;;;;;21.51;63.62;99797.69;5046563;27;97754;-73
2023/08/02 05:18:24;;;;;;;9.63;2.53;;;;;;;21.75;62.96;99794.47;5047693;27;99008;-73
2023/08/02 05:20:53;;;;;;;4.90;2.30;;;;;;;21.69;62.72;99803.97;5052255;27;98645;-73
2023/08/02 05:23:19;;;;;;;5.22;2.20;;;;;;;21.57;63.23;99797.09;5054260;27;97024;-75
2023/08/02 05:25:46;;;;;;;2.53;2.00;;;;;;;21.50;63.31;99798.66;5050382;27;101560;-72
2023/08/02 05:28:12;;;;;;;3.53;2.10;;;;;;;21.40;63.50;99789.78;5060889;27;97707;-72
2023/08/02 05:30:39;;;;;;;6.18;1.92;;;;;;;21.60;63.30;99796.78;5050326;27;97305;-72
2023/08/02 05:33:06;;;;;;;7.82;2.15;;;;;;;21.39;63.73;99799.72;5059195;27;96884;-71
2023/08/02 05:35:33;;;;;;;3.08;2.08;;;;;;;21.62;63.05;99800.19;5042658;27;98933;-72
2023/08/02 05:38:01;;;;;;;5.65;2.70;;;;;;;21.71;63.14;99791.25;5054420;27;99212;-72
2023/08/02 05:40:27;;;;;;;5.85;2.28;;;;;;;21.89;62.31;99791.28;5051052;27;97704;-73
2023/08/02 05:42:54;;;;;;;4.20;1.67;;;;;;;21.90;62.16;99797.50;5053226;27;96840;-73
2023/08/02 05:45:20;;;;;;;11.35;2.10;;;;;;;21.87;62.11;99791.44;5051134;27;98897;-72
2023/08/02 05:47:49;;;;;;;4.85;1.63;;;;;;;21.95;61.93;99792.53;5063135;27;97584;-72
2023/08/02 05:50:15;;;;;;;7.10;2.05;;;;;;;22.01;61.92;99794.66;5058696;27;98736;-72
2023/08/02 05:52:42;;;;;;;6.28;2.20;;;;;;;22.30;61.09;99808.78;5050746;27;96919;-71
2023/08/02 05:55:10;;;;;;;3.95;1.85;;;;;;;22.26;60.86;99804.69;5062093;27;102134;-72
2023/08/02 05:57:36;;;;;;;6.43;2.08;;;;;;;22.46;60.63;99806.25;5046873;27;101310;-72
2023/08/02 06:00:03;;;;;;;8.63;1.98;;;;;;;22.42;60.29;99812.09;5053925;27;97613;-73
2023/08/02 06:02:29;;;;;;;7.30;2.42;;;;;;;22.22;60.97;99808.69;5053387;27;97354;-72
2023/08/02 06:04:55;;;;;;;4.15;1.70;;;;;;;22.40;60.66;99806.00;5055277;27;97557;-72
2023/08/02 06:07:22;;;;;;;4.60;1.45;;;;;;;22.59;60.31;99804.03;5055993;27;99618;-72
2023/08/02 06:09:48;;;;;;;4.78;2.17;;;;;;;22.61;59.89;99801.19;5054248;27;98558;-72
2023/08/02 06:12:16;;;;;;;6.30;2.00;;;;;;;22.46;60.17;99803.56;5052499;27;100079;-72
2023/08/02 06:14:42;;;;;;;3.80;1.90;;;;;;;22.66;59.87;99802.41;5055305;27;101273;-72
2023/08/02 06:17:09;;;;;;;7.03;2.10;;;;;;;22.74;59.51;99806.22;5059078;27;99215;-73
2023/08/02 06:19:35;;;;;;;6.90;1.95;;;;;;;22.89;58.86;99810.91;5046135;27;97618;-72
2023/08/02 06:22:02;;;;;;;5.80;2.08;;;;;;;22.78;58.65;99797.66;5051509;27;96873;-72
2023/08/02 06:24:28;;;;;;;3.85;1.90;;;;;;;22.88;59.25;99798.44;5048440;27;99106;-73
2023/08/02 06:26:54;;;;;;;5.78;1.95;;;;;;;22.98;58.32;99790.25;5052701;27;98990;-72
2023/08/02 06:29:22;;;;;;;6.03;1.80;;;;;;;22.65;59.50;99784.56;5047797;27;102045;-73
2023/08/02 06:31:48;;;;;;;5.85;1.95;;;;;;;22.73;59.48;99789.19;5048170;27;96881;-72
2023/08/02 06:34:15;;;;;;;5.00;2.00;;;;;;;22.75;59.27;99795.28;5049291;27;99190;-73
2023/08/02 06:36:41;;;;;;;7.95;1.98;;;;;;;23.06;58.41;99798.41;5047543;27;97671;-73
2023/08/02 06:39:08;;;;;;;7.18;1.90;;;;;;;22.90;58.87;99799.13;5052098;27;97540;-72
2023/08/02 06:41:34;;;;;;;5.18;1.90;;;;;;;22.77;58.84;99795.16;5042162;27;96931;-72
2023/08/02 06:44:01;;;;;;;10.20;1.90;;;;;;;22.86;58.50;99802.28;5050826;27;98787;-73
2023/08/02 06:46:29;;;;;;;4.63;1.67;;;;;;;22.92;58.72;99796.25;5050208;27;97600;-72
2023/08/02 06:48:56;;;;;;;3.28;1.75;;;;;;;23.13;57.17;99782.44;5053048;27;98901;-73
2023/08/02 06:51:22;;;;;;;7.40;1.77;;;;;;;23.33;56.67;99792.88;5054366;27;96720;-73
2023/08/02 06:53:48;;;;;;;3.13;1.50;;;;;;;23.65;55.74;99796.78;5049730;27;100112;-73
2023/08/02 06:56:17;;;;;;;5.82;1.67;;;;;;;23.73;54.71;99780.66;5051082;27;99295;-73
2023/08/02 06:58:44;;;;;;;3.95;1.80;;;;;;;24.02;53.82;99770.31;5042050;27;102541;-73
2023/08/02 07:01:14;;;;;;;10.23;2.20;;;;;;;24.19;53.67;99769.38;5052203;27;97911;-72
2023/08/02 07:03:41;;;;;;;5.50;2.00;;;;;;;24.30;52.72;99761.97;5045932;27;99750;-73
2023/08/02 07:06:09;;;;;;;6.65;2.00;;;;;;;24.32;52.92;99760.81;5047492;27;97862;-74
2023/08/02 07:08:35;;;;;;;4.22;1.60;;;;;;;24.61;52.13;99757.63;5049571;27;98797;-72
2023/08/02 07:11:01;;;;;;;5.05;1.67;;;;;;;24.65;51.41;99745.47;5045887;27;97672;-71
2023/08/02 07:13:28;;;;;;;3.97;1.70;;;;;;;24.78;51.18;99740.41;5041652;27;99428;-71
2023/08/02 07:15:54;;;;;;;5.57;2.35;;;;;;;24.88;50.26;99746.47;5043771;27;97958;-73
2023/08/02 07:18:21;;;;;;;3.72;1.63;;;;;;;25.26;49.16;99739.53;5050496;27;97160;-72
2023/08/02 07:20:48;;;;;;;4.35;1.42;;;;;;;25.31;48.49;99741.72;5059006;27;97509;-73
2023/08/02 07:23:15;;;;;;;5.00;1.50;;;;;;;25.55;47.96;99736.22;5046668;27;99044;-72
2023/08/02 07:25:41;;;;;;;4.63;1.65;;;;;;;25.48;47.72;99740.66;5042051;27;99070;-73
2023/08/02 07:28:07;;;;;;;7.47;2.15;;;;;;;25.99;47.08;99733.03;5043470;27;100223;-73
2023/08/02 07:30:34;;;;;;;7.80;1.60;;;;;;;26.27;46.59;99730.69;5054390;27;97549;-71
2023/08/02 07:33:00;;;;;;;5.85;1.90;;;;;;;26.58;45.62;99731.50;5045403;27;98785;-73
2023/08/02 07:35:26;;;;;;;3.97;1.60;;;;;;;26.45;44.56;99715.81;5047992;27;97626;-72
2023/08/02 07:37:54;;;;;;;7.93;1.52;;;;;;;26.33;45.00;99721.84;5044200;27;96863;-73
2023/08/02 07:40:21;;;;;;;4.22;1.58;;;;;;;26.47;44.73;99734.59;5054341;27;96920;-73
2023/08/02 07:42:47;;;;;;;6.22;1.60;;;;;;;26.00;44.32;99724.72;5041250;27;98698;-72
2023/08/02 07:45:14;;;;;;;4.80;1.42;;;;;;;25.90;44.89;99731.38;5043992;27;98877;-73
2023/08/02 07:47:40;;;;;;;3.08;1.13;;;;;;;25.85;44.93;99720.25;5040322;27;97766;-73
2023/08/02 07:50:07;;;;;;;5.72;1.40;;;;;;;25.94;45.40;99727.28;5047775;27;97465;-73
2023/08/02 07:52:34;;;;;;;5.80;1.45;;;;;;;25.95;45.15;99720.84;5042375;27;98839;-71
2023/08/02 07:55:02;;;;;;;5.25;1.58;;;;;;;26.07;44.86;99725.69;5038725;27;99337;-71
2023/08/02 07:57:33;;;;;;;3.10;1.50;;;;;;;26.50;44.21;99724.25;5039948;27;100194;-73
2023/08/02 08:00:00;;;;;;;5.40;1.67;;;;;;;26.37;43.25;99732.16;5044031;27;97202;-73
2023/08/02 08:02:26;;;;;;;5.20;1.50;;;;;;;26.10;44.44;99728.06;5040018;27;99155;-73
2023/08/02 08:04:53;;;;;;;5.55;1.70;;;;;;;26.34;44.59;99729.78;5037637;27;98050;-72
2023/08/02 08:07:20;;;;;;;3.47;1.30;;;;;;;26.23;44.88;99729.31;5039036;27;97629;-72
2023/08/02 08:09:47;;;;;;;3.08;1.27;;;;;;;26.68;43.68;99736.63;5040616;27;97782;-72
2023/08/02 08:12:14;;;;;;;4.90;1.15;;;;;;;26.62;42.53;99742.78;5050348;27;98884;-73
2023/08/02 08:14:42;;;;;;;3.55;1.50;;;;;;;26.30;43.55;99730.34;5041904;27;99127;-73
2023/08/02 08:17:09;;;;;;;5.15;1.65;;;;;;;26.81;43.23;99721.44;5049737;27;97983;-73
2023/08/02 08:19:38;;;;;;;5.00;1.40;;;;;;;26.38;43.36;99717.59;5044110;27;97161;-72
2023/08/02 08:22:05;;;;;;;2.58;1.40;;;;;;;26.33;43.37;99727.25;5040188;27;97629;-71
2023/08/02 08:24:31;;;;;;;3.60;1.75;;;;;;;26.01;43.74;99729.13;5041015;27;98809;-72
2023/08/02 08:26:57;;;;;;;4.47;0.98;;;;;;;25.95;43.58;99719.00;5042649;27;97348;-71
2023/08/02 08:29:27;;;;;;;4.65;1.30;;;;;;;25.50;45.37;99730.50;5043297;27;96996;-72
2023/08/02 08:31:53;;;;;;;1.77;1.08;;;;;;;26.17;44.54;99722.78;5039474;27;99103;-73
2023/08/02 08:34:20;;;;;;;4.00;1.30;;;;;;;26.26;42.36;99719.00;5044723;27;99278;-74
2023/08/02 08:36:46;;;;;;;6.32;1.15;;;;;;;26.45;41.88;99712.28;5045036;27;96900;-73
2023/08/02 08:39:13;;;;;;;4.82;1.30;;;;;;;26.57;41.70;99708.13;5051003;27;99060;-73
2023/08/02 08:41:39;;;;;;;4.32;1.50;;;;;;;26.34;42.10;99697.28;5047931;27;100797;-73
2023/08/02 08:44:05;;;;;;;8.63;1.50;;;;;;;26.45;41.48;99706.88;5046955;27;98689;-73
2023/08/02 08:46:35;;;;;;;3.92;1.10;;;;;;;26.04;42.14;99700.84;5049691;27;97128;-73
2023/08/02 08:49:02;;;;;;;3.60;0.95;;;;;;;26.06;41.51;99694.22;5043878;27;97297;-73
2023/08/02 08:51:31;;;;;;;3.90;1.13;;;;;;;25.75;42.66;99693.41;5048372;27;98926;-72
2023/08/02 08:54:02;;;;;;;3.60;1.23;;;;;;;25.98;42.25;99685.34;5046312;27;98077;-65
2023/08/02 08:56:29;;;;;;;4.68;1.13;;;;;;;26.26;41.00;99683.81;5049361;27;97241;-64
2023/08/02 08:58:59;;;;;;;4.18;1.20;;;;;;;26.77;40.20;99670.53;5050434;27;97225;-65
2023/08/02 09:01:26;;;;;;;4.38;1.50;;;;;;;27.21;39.69;99676.84;5039575;27;99080;-64
2023/08/02 09:03:56;;;;;;;4.35;1.15;;;;;;;27.41;38.16;99673.56;5042059;27;99003;-65
2023/08/02 09:06:24;;;;;;;3.60;1.15;;;;;;;27.71;37.79;99675.25;5046363;27;96899;-65
2023/08/02 09:08:51;;;;;;;3.10;1.30;;;;;;;27.55;37.95;99675.47;5041021;27;97445;-65
2023/08/02 09:11:17;;;;;;;3.80;1.02;;;;;;;27.12;37.50;99656.28;5040148;27;98857;-66
2023/08/02 09:13:43;;;;;;;2.80;1.20;;;;;;;27.20;37.40;99650.75;5046243;27;98225;-65
2023/08/02 09:16:11;;;;;;;5.22;1.20;;;;;;;27.20;37.90;99649.91;5050832;27;96807;-65
2023/08/02 09:18:40;;;;;;;3.25;1.00;;;;;;;27.20;37.46;99658.91;5047735;27;98395;-64
2023/08/02 09:21:09;;;;;;;3.17;1.05;;;;;;;27.17;37.64;99655.72;5046580;27;98936;-65
2023/08/02 09:23:36;;;;;;;4.72;1.58;;;;;;;27.06;38.17;99651.59;5035793;27;99399;-64
2023/08/02 09:26:13;;;;;;;4.47;1.27;;;;;;;27.04;38.67;99653.69;5041943;27;98430;-64
2023/08/02 09:28:40;;;;;;;2.13;0.77;;;;;;;27.04;38.38;99650.97;5052076;27;97608;-64
2023/08/02 09:31:16;;;;;;;3.00;0.93;;;;;;;26.80;38.74;99643.03;5048852;27;99670;-65
2023/08/02 09:33:50;;;;;;;6.10;0.98;;;;;;;26.82;39.80;99654.53;5039259;27;99660;-65
2023/08/02 09:36:26;;;;;;;3.63;0.82;;;;;;;26.74;38.77;99641.91;5048296;27;97336;-65
2023/08/02 09:39:03;;;;;;;1.58;1.00;;;;;;;26.86;39.10;99642.28;5045381;27;97391;-63
2023/08/02 09:41:30;;;;;;;4.10;0.93;;;;;;;27.14;39.30;99640.66;5048926;27;99026;-65
2023/08/02 09:43:57;;;;;;;3.38;1.10;;;;;;;27.41;38.53;99630.16;5051731;27;98865;-65
2023/08/02 09:46:26;;;;;;;4.20;1.55;;;;;;;27.42;38.57;99630.00;5057582;27;97010;-65
2023/08/02 09:48:53;;;;;;;2.15;0.88;;;;;;;27.48;37.88;99631.09;5052405;27;96861;-65
2023/08/02 09:51:19;;;;;;;3.58;1.52;;;;;;;27.31;38.21;99631.28;5056572;27;99832;-64
2023/08/02 09:53:56;;;;;;;2.63;1.13;;;;;;;27.83;37.79;99618.59;5044501;27;99189;-65
2023/08/02 09:56:24;;;;;;;4.53;1.30;;;;;;;28.23;36.68;99620.69;5050436;27;96770;-65
2023/08/02 09:58:54;;;;;;;3.50;1.00;;;;;;;27.62;37.02;99616.69;5048668;27;97300;-65
2023/08/02 10:01:22;;;;;;;3.42;0.90;;;;;;;27.11;38.18;99605.78;5053706;27;98996;-64
2023/08/02 10:03:55;;;;;;;3.30;1.27;;;;;;;27.36;38.44;99611.75;5045054;27;102148;-62
2023/08/02 10:06:23;;;;;;;2.70;1.35;;;;;;;27.31;38.69;99604.16;5054405;27;96797;-65
2023/08/02 10:08:51;;;;;;;3.60;0.88;;;;;;;27.35;38.39;99608.19;5057711;27;96896;-64
2023/08/02 10:11:19;;;;;;;2.85;0.90;;;;;;;27.46;38.45;99604.16;5048739;27;101311;-65
2023/08/02 10:13:48;;;;;;;4.35;1.05;;;;;;;27.48;38.71;99593.13;5051851;27;98133;-65
2023/08/02 10:16:16;;;;;;;2.58;1.02;;;;;;;27.40;38.90;99590.50;5048518;27;96765;-66
2023/08/02 10:18:43;;;;;;;3.50;1.10;;;;;;;27.17;39.67;99588.78;5054714;27;98298;-64
2023/08/02 10:21:11;;;;;;;1.23;0.73;;;;;;;26.98;40.50;99577.69;5049501;27;98848;-64
2023/08/02 10:23:38;;;;;;;1.70;0.73;;;;;;;28.02;39.25;99591.66;5038204;27;98920;-64
2023/08/02 10:26:06;;;;;;;3.65;1.17;;;;;;;27.99;38.66;99592.03;5045881;27;97242;-65
2023/08/02 10:28:34;;;;;;;2.30;1.00;;;;;;;27.89;39.09;99580.66;5050879;27;97494;-65
2023/08/02 10:31:05;;;;;;;3.72;0.90;;;;;;;28.29;38.72;99576.44;5051842;27;98819;-65
2023/08/02 10:33:32;;;;;;;5.72;2.35;;;;;;;27.91;38.96;99578.59;5044366;27;98922;-65
2023/08/02 10:36:00;;;;;;;4.20;1.00;;;;;;;27.79;39.06;99577.41;5047283;27;97484;-65
2023/08/02 10:38:27;;;;;;;3.13;1.35;;;;;;;27.76;39.88;99589.50;5047481;27;96823;-64
2023/08/02 10:41:05;;;;;;;5.20;0.95;;;;;;;27.82;39.51;99581.63;5048793;27;99256;-65
2023/08/02 10:43:31;;;;;;;2.22;1.10;;;;;;;27.72;39.79;99581.94;5047574;27;98852;-64
2023/08/02 10:46:17;;;;;;;2.15;0.95;;;;;;;27.78;39.88;99575.72;5050928;27;96920;-65
2023/08/02 10:48:43;;;;;;;2.70;0.82;;;;;;;28.05;39.20;99553.25;5048109;27;97196;-66
2023/08/02 10:51:31;;;;;;;2.15;0.93;;;;;;;27.69;40.23;99561.47;5050017;27;98921;-64
2023/08/02 10:54:11;;;;;;;2.95;1.00;;;;;;;27.72;40.79;99555.63;5045357;27;98864;-65
2023/08/02 10:57:05;;;;;;;3.13;0.90;;;;;;;27.89;40.63;99556.25;5046168;27;96828;-65
2023/08/02 10:59:38;;;;;;;2.13;1.05;;;;;;;27.76;40.78;99556.09;5045034;27;97504;-65
2023/08/02 11:02:08;;;;;;;2.70;1.17;;;;;;;27.55;41.44;99556.09;5050693;27;99062;-65
2023/08/02 11:04:37;;;;;;;2.88;1.00;;;;;;;27.73;40.91;99551.06;5047055;27;98817;-64
2023/08/02 11:07:11;;;;;;;1.83;1.23;;;;;;;27.90;40.76;99548.91;5046673;27;98723;-65
2023/08/02 11:09:37;;;;;;;1.88;0.82;;;;;;;27.89;41.00;99530.97;5051101;27;97214;-65
2023/08/02 11:12:09;;;;;;;2.83;1.05;;;;;;;27.70;40.88;99535.16;5044331;27;98885;-64
2023/08/02 11:14:35;;;;;;;3.35;1.23;;;;;;;27.55;41.36;99523.53;5051906;27;99276;-65
2023/08/02 11:17:02;;;;;;;5.63;1.48;;;;;;;27.58;40.83;99528.56;5054215;27;97217;-65
2023/08/02 11:19:30;;;;;;;5.38;1.52;;;;;;;27.53;40.96;99525.59;5048772;27;98624;-66
2023/08/02 11:21:58;;;;;;;4.80;1.50;;;;;;;27.37;40.83;99515.81;5047316;27;98934;-64
2023/08/02 11:24:24;;;;;;;9.88;1.83;;;;;;;27.05;41.99;99514.34;5047058;27;98833;-65
2023/08/02 11:26:53;;;;;;;4.60;1.27;;;;;;;27.11;42.46;99496.50;5047879;27;97168;-65
2023/08/02 11:29:20;;;;;;;4.22;1.30;;;;;;;27.37;42.47;99496.81;5040803;27;99456;-64
2023/08/02 11:31:46;;;;;;;4.18;1.15;;;;;;;27.04;43.02;99498.31;5042546;27;98818;-64
2023/08/02 11:34:18;;;;;;;2.63;1.33;;;;;;;26.98;43.25;99478.19;5040774;27;98832;-64